createdAt,value
2023-04-26T00:00:02.126Z,95717.44
2023-04-26T00:02:36.171Z,95719.28
2023-04-26T00:05:05.263Z,95726.19
2023-04-26T00:07:34.077Z,95728.38
2023-04-26T00:10:02.215Z,95730.59
2023-04-26T00:12:30.714Z,95728.84
2023-04-26T00:14:58.872Z,95724.38
2023-04-26T00:17:26.941Z,95726.78
2023-04-26T00:19:57.561Z,95722.53
2023-04-26T00:22:25.681Z,95729.44
2023-04-26T00:24:54.080Z,95732.66
2023-04-26T00:27:22.161Z,95730.81
2023-04-26T00:29:50.281Z,95734.50
2023-04-26T00:32:18.411Z,95735.09
2023-04-26T00:34:48.283Z,95738.88
2023-04-26T00:37:21.500Z,95738.63
2023-04-26T00:39:50.042Z,95736.22
2023-04-26T00:42:19.433Z,95743.94
2023-04-26T00:44:47.559Z,95744.97
2023-04-26T00:47:15.586Z,95737.38
2023-04-26T00:49:43.766Z,95749.59
2023-04-26T00:52:11.844Z,95747.97
2023-04-26T00:54:42.255Z,95748.31
2023-04-26T00:57:10.801Z,95750.38
2023-04-26T00:59:38.921Z,95747.97
2023-04-26T01:02:06.972Z,95751.06
2023-04-26T01:04:35.201Z,95755.88
2023-04-26T01:07:03.963Z,95752.44
2023-04-26T01:09:34.700Z,95753.00
2023-04-26T01:12:04.276Z,95755.75
2023-04-26T01:14:32.969Z,95752.56
2023-04-26T01:17:01.596Z,95751.97
2023-04-26T01:19:29.839Z,95746.91
2023-04-26T01:21:58.232Z,95751.03
2023-04-26T01:24:28.543Z,95751.16
2023-04-26T01:26:57.486Z,95753.44
2023-04-26T01:29:25.618Z,95752.28
2023-04-26T01:31:53.805Z,95755.06
2023-04-26T01:34:21.875Z,95750.44
2023-04-26T01:36:50.334Z,95750.53
2023-04-26T01:39:18.486Z,95751.78
2023-04-26T01:41:47.916Z,95751.91
2023-04-26T01:44:16.174Z,95752.56
2023-04-26T01:46:45.041Z,95760.72
2023-04-26T01:49:14.362Z,95757.72
2023-04-26T01:51:42.523Z,95765.72
2023-04-26T01:54:10.574Z,95762.97
2023-04-26T01:56:38.698Z,95768.25
2023-04-26T01:59:08.208Z,95770.09
2023-04-26T02:01:36.284Z,95764.22
2023-04-26T02:04:05.417Z,95763.63
2023-04-26T02:06:33.463Z,95771.00
2023-04-26T02:09:01.554Z,95766.50
2023-04-26T02:11:29.658Z,95763.63
2023-04-26T02:13:59.249Z,95768.09
2023-04-26T02:16:29.213Z,95763.06
2023-04-26T02:18:57.571Z,95764.09
2023-04-26T02:21:26.748Z,95760.72
2023-04-26T02:23:54.900Z,95767.06
2023-04-26T02:26:23.025Z,95763.81
2023-04-26T02:28:51.666Z,95758.97
2023-04-26T02:31:21.736Z,95754.50
2023-04-26T02:33:52.768Z,95764.03
2023-04-26T02:36:20.819Z,95761.75
2023-04-26T02:38:48.952Z,95763.13
2023-04-26T02:41:17.095Z,95760.84
2023-04-26T02:43:45.746Z,95755.78
2023-04-26T02:46:17.183Z,95762.81
2023-04-26T02:48:45.579Z,95752.41
2023-04-26T02:51:16.098Z,95754.34
2023-04-26T02:53:44.200Z,95760.81
2023-04-26T02:56:12.649Z,95764.84
2023-04-26T02:58:40.746Z,95756.44
2023-04-26T03:01:08.840Z,95755.19
2023-04-26T03:03:37.367Z,95755.78
2023-04-26T03:06:06.405Z,95749.69
2023-04-26T03:08:36.769Z,95753.81
2023-04-26T03:11:05.512Z,95753.91
2023-04-26T03:13:33.734Z,95753.41
2023-04-26T03:16:02.114Z,95749.59
2023-04-26T03:18:30.715Z,95750.38
2023-04-26T03:20:58.927Z,95744.94
2023-04-26T03:23:27.410Z,95751.34
2023-04-26T03:25:57.318Z,95763.69
2023-04-26T03:28:25.473Z,95755.84
2023-04-26T03:30:53.547Z,95749.16
2023-04-26T03:33:22.109Z,95758.94
2023-04-26T03:35:51.628Z,95756.75
2023-04-26T03:38:20.209Z,95754.31
2023-04-26T03:40:48.407Z,95758.22
2023-04-26T03:43:17.972Z,95760.94
2023-04-26T03:45:48.874Z,95759.75
2023-04-26T03:48:17.487Z,95761.66
2023-04-26T03:50:46.701Z,95761.13
2023-04-26T03:53:14.764Z,95763.81
2023-04-26T03:55:43.246Z,95761.25
2023-04-26T03:58:11.365Z,95762.97
2023-04-26T04:00:41.145Z,95761.16
2023-04-26T04:03:09.455Z,95771.19
2023-04-26T04:05:38.268Z,95781.00
2023-04-26T04:08:06.781Z,95772.09
2023-04-26T04:10:35.051Z,95776.59
2023-04-26T04:13:03.162Z,95768.25
2023-04-26T04:15:31.819Z,95776.81
2023-04-26T04:18:02.010Z,95772.78
2023-04-26T04:20:30.171Z,95777.09
2023-04-26T04:22:59.001Z,95777.72
2023-04-26T04:25:27.182Z,95788.47
2023-04-26T04:27:58.355Z,95785.84
2023-04-26T04:30:26.898Z,95793.75
2023-04-26T04:32:55.889Z,95793.97
2023-04-26T04:35:28.625Z,95805.72
2023-04-26T04:37:57.800Z,95806.84
2023-04-26T04:40:26.771Z,95801.69
2023-04-26T04:42:56.037Z,95806.09
2023-04-26T04:45:27.175Z,95810.69
2023-04-26T04:47:57.027Z,95809.25
2023-04-26T04:50:26.720Z,95812.72
2023-04-26T04:52:54.873Z,95812.28
2023-04-26T04:55:23.348Z,95817.09
2023-04-26T04:57:51.519Z,95814.25
2023-04-26T05:00:21.663Z,95818.22
2023-04-26T05:03:16.090Z,95821.25
2023-04-26T05:05:45.699Z,95823.91
2023-04-26T05:08:13.806Z,95824.03
2023-04-26T05:10:42.005Z,95831.53
2023-04-26T05:13:10.677Z,95830.66
2023-04-26T05:15:39.957Z,95824.81
2023-04-26T05:18:08.106Z,95826.56
2023-04-26T05:20:36.228Z,95832.16
2023-04-26T05:23:06.785Z,95834.16
2023-04-26T05:25:38.512Z,95831.22
2023-04-26T05:28:26.130Z,95834.56
2023-04-26T05:31:16.961Z,95832.88
2023-04-26T05:33:58.158Z,95846.38
2023-04-26T05:36:32.244Z,95837.19
2023-04-26T05:39:01.737Z,95839.31
2023-04-26T05:41:30.415Z,95848.78
2023-04-26T05:43:58.557Z,95845.00
2023-04-26T05:46:27.326Z,95854.50
2023-04-26T05:48:56.555Z,95848.25
2023-04-26T05:51:24.852Z,95852.88
2023-04-26T05:53:53.206Z,95860.94
2023-04-26T05:56:26.840Z,95854.44
2023-04-26T05:58:54.997Z,95860.91
2023-04-26T06:01:23.107Z,95859.22
2023-04-26T06:03:51.957Z,95857.94
2023-04-26T06:06:24.106Z,95862.53
2023-04-26T06:08:53.015Z,95858.63
2023-04-26T06:11:21.563Z,95857.81
2023-04-26T06:13:51.425Z,95863.47
2023-04-26T06:16:20.075Z,95864.28
2023-04-26T06:18:49.492Z,95865.09
2023-04-26T06:21:17.586Z,95859.38
2023-04-26T06:23:46.703Z,95863.31
2023-04-26T06:26:14.857Z,95852.38
2023-04-26T06:28:43.039Z,95859.88
2023-04-26T06:31:12.581Z,95859.88
2023-04-26T06:33:41.154Z,95858.94
2023-04-26T06:36:12.980Z,95855.72
2023-04-26T06:38:42.746Z,95854.22
2023-04-26T06:41:10.908Z,95863.66
2023-04-26T06:43:39.095Z,95863.97
2023-04-26T06:46:09.246Z,95861.44
2023-04-26T06:48:38.840Z,95865.41
2023-04-26T06:51:08.534Z,95858.63
2023-04-26T06:53:36.940Z,95869.22
2023-04-26T06:56:05.258Z,95866.22
2023-04-26T06:58:33.357Z,95864.75
2023-04-26T07:01:01.458Z,95862.69
2023-04-26T07:03:29.697Z,95868.06
2023-04-26T07:05:59.274Z,95861.13
2023-04-26T07:08:27.334Z,95861.28
2023-04-26T07:10:55.476Z,95860.84
2023-04-26T07:13:23.610Z,95857.50
2023-04-26T07:15:52.040Z,95855.38
2023-04-26T07:18:20.565Z,95855.59
2023-04-26T07:20:48.598Z,95857.22
2023-04-26T07:23:18.101Z,95867.03
2023-04-26T07:25:46.143Z,95868.53
2023-04-26T07:28:14.665Z,95871.34
2023-04-26T07:30:42.961Z,95869.06
2023-04-26T07:33:11.455Z,95864.59
2023-04-26T07:35:39.567Z,95862.69
2023-04-26T07:38:09.087Z,95861.81
2023-04-26T07:40:38.635Z,95870.50
2023-04-26T07:43:06.826Z,95862.06
2023-04-26T07:45:34.932Z,95864.94
2023-04-26T07:48:03.115Z,95868.56
2023-04-26T07:50:31.288Z,95876.19
2023-04-26T07:52:59.326Z,95877.06
2023-04-26T07:55:27.483Z,95870.50
2023-04-26T07:57:58.230Z,95876.16
2023-04-26T08:00:26.513Z,95871.22
2023-04-26T08:02:54.891Z,95870.28
2023-04-26T08:05:23.522Z,95868.81
2023-04-26T08:07:51.720Z,95876.88
2023-04-26T08:10:19.809Z,95876.63
2023-04-26T08:12:48.362Z,95883.97
2023-04-26T08:15:17.855Z,95881.06
2023-04-26T08:17:45.994Z,95890.16
2023-04-26T08:20:14.410Z,95896.25
2023-04-26T08:22:42.488Z,95895.84
2023-04-26T08:25:11.514Z,95892.53
2023-04-26T08:27:40.454Z,95889.66
2023-04-26T08:30:09.630Z,95890.00
2023-04-26T08:32:39.164Z,95886.03
2023-04-26T08:35:07.847Z,95879.09
2023-04-26T08:37:35.972Z,95885.50
2023-04-26T08:40:04.972Z,95879.84
2023-04-26T08:42:33.003Z,95891.63
2023-04-26T08:45:02.387Z,95887.28
2023-04-26T08:47:32.027Z,95900.34
2023-04-26T08:50:03.710Z,95905.53
2023-04-26T08:52:32.514Z,95894.44
2023-04-26T08:55:01.243Z,95899.06
2023-04-26T08:57:29.373Z,95897.97
2023-04-26T08:59:58.407Z,95895.75
2023-04-26T09:02:26.656Z,95906.38
2023-04-26T09:04:54.980Z,95897.25
2023-04-26T09:07:32.024Z,95903.91
2023-04-26T09:10:00.972Z,95909.84
2023-04-26T09:12:29.335Z,95905.34
2023-04-26T09:14:57.754Z,95907.03
2023-04-26T09:17:26.896Z,95906.81
2023-04-26T09:19:55.028Z,95904.56
2023-04-26T09:22:31.707Z,95906.50
2023-04-26T09:24:59.850Z,95892.97
2023-04-26T09:27:38.101Z,95895.25
2023-04-26T09:30:09.380Z,95898.78
2023-04-26T09:32:52.264Z,95903.72
2023-04-26T09:35:24.094Z,95907.63
2023-04-26T09:38:01.882Z,95909.06
2023-04-26T09:40:35.930Z,95902.59
2023-04-26T09:43:05.073Z,95901.09
2023-04-26T09:45:34.424Z,95899.19
2023-04-26T09:48:16.957Z,95904.72
2023-04-26T09:50:45.839Z,95905.81
2023-04-26T09:53:28.332Z,95891.03
2023-04-26T09:55:56.608Z,95893.72
2023-04-26T09:58:24.770Z,95898.09
2023-04-26T10:00:53.211Z,95893.81
2023-04-26T10:03:21.623Z,95885.97
2023-04-26T10:05:49.885Z,95890.72
2023-04-26T10:08:19.593Z,95891.19
2023-04-26T10:10:47.753Z,95906.56
2023-04-26T10:13:16.513Z,95908.50
2023-04-26T10:15:44.637Z,95906.91
2023-04-26T10:18:13.172Z,95906.25
2023-04-26T10:20:42.667Z,95903.38
2023-04-26T10:23:17.241Z,95901.78
2023-04-26T10:25:48.238Z,95905.28
2023-04-26T10:28:17.674Z,95888.50
2023-04-26T10:30:58.053Z,95892.22
2023-04-26T10:33:27.310Z,95905.94
2023-04-26T10:36:16.105Z,95913.66
2023-04-26T10:39:00.130Z,95909.56
2023-04-26T10:41:33.786Z,95907.63
2023-04-26T10:44:17.853Z,95905.53
2023-04-26T10:46:47.287Z,95903.31
2023-04-26T10:49:19.148Z,95890.22
2023-04-26T10:52:16.062Z,95901.34
2023-04-26T10:55:02.651Z,95900.66
2023-04-26T10:57:51.633Z,95909.06
2023-04-26T11:00:32.463Z,95906.13
2023-04-26T11:03:08.837Z,95899.06
2023-04-26T11:05:42.903Z,95897.50
2023-04-26T11:08:17.022Z,95883.44
2023-04-26T11:10:47.241Z,95885.88
2023-04-26T11:13:18.093Z,95897.19
2023-04-26T11:15:46.367Z,95891.16
2023-04-26T11:18:14.490Z,95894.88
2023-04-26T11:20:42.572Z,95886.06
2023-04-26T11:23:11.132Z,95883.38
2023-04-26T11:25:40.672Z,95891.94
2023-04-26T11:28:09.400Z,95878.81
2023-04-26T11:30:38.999Z,95885.00
2023-04-26T11:33:07.135Z,95880.41
2023-04-26T11:35:36.052Z,95883.09
2023-04-26T11:38:05.434Z,95885.75
2023-04-26T11:40:34.232Z,95891.13
2023-04-26T11:43:03.583Z,95887.09
2023-04-26T11:45:33.046Z,95885.78
2023-04-26T11:48:03.387Z,95885.69
2023-04-26T11:50:32.848Z,95883.28
2023-04-26T11:53:03.333Z,95889.97
2023-04-26T11:55:32.216Z,95892.91
2023-04-26T11:58:00.441Z,95892.88
2023-04-26T12:00:28.893Z,95880.63
2023-04-26T12:02:58.322Z,95877.75
2023-04-26T12:05:30.703Z,95879.09
2023-04-26T12:07:59.814Z,95878.28
2023-04-26T12:10:28.846Z,95875.31
2023-04-26T12:12:57.472Z,95867.28
2023-04-26T12:15:26.063Z,95873.75
2023-04-26T12:17:57.918Z,95875.59
2023-04-26T12:20:32.410Z,95880.38
2023-04-26T12:23:01.374Z,95873.94
2023-04-26T12:25:29.572Z,95876.25
2023-04-26T12:27:57.827Z,95879.47
2023-04-26T12:30:27.331Z,95883.19
2023-04-26T12:33:15.568Z,95881.38
2023-04-26T12:35:47.857Z,95880.31
2023-04-26T12:38:15.991Z,95871.06
2023-04-26T12:40:45.303Z,95873.75
2023-04-26T12:43:13.461Z,95872.94
2023-04-26T12:45:41.562Z,95875.88
2023-04-26T12:48:09.722Z,95872.94
2023-04-26T12:50:38.274Z,95876.97
2023-04-26T12:53:07.944Z,95872.41
2023-04-26T12:55:36.161Z,95876.16
2023-04-26T12:58:04.266Z,95886.84
2023-04-26T13:00:32.365Z,95874.25
2023-04-26T13:03:01.565Z,95878.28
2023-04-26T13:05:30.105Z,95878.22
2023-04-26T13:07:58.299Z,95876.88
2023-04-26T13:10:28.053Z,95875.50
2023-04-26T13:12:57.955Z,95877.63
2023-04-26T13:15:26.952Z,95879.22
2023-04-26T13:17:55.223Z,95879.22
2023-04-26T13:20:25.731Z,95880.06
2023-04-26T13:22:54.824Z,95874.94
2023-04-26T13:25:23.495Z,95879.47
2023-04-26T13:27:54.804Z,95872.56
2023-04-26T13:30:23.327Z,95877.41
2023-04-26T13:32:51.792Z,95885.44
2023-04-26T13:35:20.114Z,95889.72
2023-04-26T13:37:48.382Z,95886.78
2023-04-26T13:40:17.181Z,95882.47
2023-04-26T13:42:45.284Z,95885.66
2023-04-26T13:45:16.612Z,95890.22
2023-04-26T13:47:45.760Z,95890.47
2023-04-26T13:50:13.906Z,95885.94
2023-04-26T13:52:42.038Z,95886.19
2023-04-26T13:55:10.534Z,95888.63
2023-04-26T13:57:38.758Z,95888.09
2023-04-26T14:00:08.772Z,95887.03
2023-04-26T14:02:41.323Z,95888.34
2023-04-26T14:05:10.482Z,95888.91
2023-04-26T14:07:38.714Z,95891.91
2023-04-26T14:10:07.830Z,95894.84
2023-04-26T14:12:36.292Z,95887.63
2023-04-26T14:15:06.040Z,95888.34
2023-04-26T14:17:34.258Z,95890.19
2023-04-26T14:20:04.018Z,95890.47
2023-04-26T14:22:32.088Z,95892.03
2023-04-26T14:25:00.191Z,95887.19
2023-04-26T14:27:28.645Z,95895.50
2023-04-26T14:29:56.944Z,95892.53
2023-04-26T14:32:25.058Z,95889.84
2023-04-26T14:34:53.485Z,95890.63
2023-04-26T14:37:24.039Z,95895.69
2023-04-26T14:39:53.542Z,95891.16
2023-04-26T14:42:21.545Z,95891.34
2023-04-26T14:44:49.835Z,95891.94
2023-04-26T14:47:17.944Z,95891.41
2023-04-26T14:49:46.241Z,95886.13
2023-04-26T14:52:14.349Z,95893.19
2023-04-26T14:54:46.687Z,95881.50
2023-04-26T14:57:16.211Z,95889.25
2023-04-26T14:59:44.555Z,95886.56
2023-04-26T15:02:12.726Z,95880.94
2023-04-26T15:04:41.231Z,95879.84
2023-04-26T15:07:15.228Z,95881.94
2023-04-26T15:09:51.418Z,95885.13
2023-04-26T15:12:19.592Z,95886.97
2023-04-26T15:14:47.708Z,95886.72
2023-04-26T15:17:15.743Z,95884.28
2023-04-26T15:19:44.025Z,95888.28
2023-04-26T15:22:12.212Z,95885.38
2023-04-26T15:24:40.335Z,95899.28
2023-04-26T15:27:10.530Z,95889.66
2023-04-26T15:29:38.648Z,95890.16
2023-04-26T15:32:06.809Z,95882.38
2023-04-26T15:34:40.087Z,95889.78
2023-04-26T15:37:08.197Z,95888.72
2023-04-26T15:39:36.836Z,95883.63
2023-04-26T15:42:05.600Z,95888.97
2023-04-26T15:44:35.108Z,95885.44
2023-04-26T15:47:03.834Z,95893.16
2023-04-26T15:49:32.368Z,95893.16
2023-04-26T15:52:00.738Z,95886.72
2023-04-26T15:54:28.862Z,95889.91
2023-04-26T15:56:56.884Z,95885.34
2023-04-26T15:59:25.399Z,95891.97
2023-04-26T16:01:55.160Z,95887.38
2023-04-26T16:04:23.785Z,95888.75
2023-04-26T16:06:52.014Z,95892.53
2023-04-26T16:09:24.965Z,95893.34
2023-04-26T16:11:53.956Z,95893.09
2023-04-26T16:14:22.460Z,95889.69
2023-04-26T16:16:51.035Z,95894.41
2023-04-26T16:19:20.481Z,95895.13
2023-04-26T16:21:48.862Z,95885.97
2023-04-26T16:24:16.940Z,95889.34
2023-04-26T16:26:45.081Z,95892.75
2023-04-26T16:29:13.289Z,95884.50
2023-04-26T16:31:41.810Z,95889.88
2023-04-26T16:34:09.911Z,95890.97
2023-04-26T16:36:39.763Z,95888.56
2023-04-26T16:39:07.986Z,95885.88
2023-04-26T16:41:36.101Z,95886.50
2023-04-26T16:44:04.615Z,95884.63
2023-04-26T16:46:32.721Z,95887.53
2023-04-26T16:49:00.929Z,95888.31
2023-04-26T16:51:29.075Z,95887.94
2023-04-26T16:53:58.597Z,95885.78
2023-04-26T16:56:26.739Z,95878.53
2023-04-26T16:58:55.750Z,95873.66
2023-04-26T17:01:23.915Z,95883.25
2023-04-26T17:03:52.334Z,95884.00
2023-04-26T17:06:20.680Z,95889.59
2023-04-26T17:08:48.790Z,95891.72
2023-04-26T17:11:18.793Z,95887.94
2023-04-26T17:13:47.031Z,95887.88
2023-04-26T17:16:15.185Z,95891.31
2023-04-26T17:18:43.566Z,95897.44
2023-04-26T17:21:12.135Z,95899.50
2023-04-26T17:23:40.251Z,95901.53
2023-04-26T17:26:08.312Z,95903.22
2023-04-26T17:28:39.010Z,95904.88
2023-04-26T17:31:07.162Z,95911.69
2023-04-26T17:33:36.848Z,95907.13
2023-04-26T17:36:05.381Z,95909.16
2023-04-26T17:38:34.064Z,95909.13
2023-04-26T17:41:02.140Z,95913.56
2023-04-26T17:43:30.214Z,95916.47
2023-04-26T17:45:59.917Z,95920.69
2023-04-26T17:48:29.145Z,95927.22
2023-04-26T17:50:58.106Z,95931.94
2023-04-26T17:53:26.526Z,95926.22
2023-04-26T17:55:55.283Z,95933.88
2023-04-26T17:58:23.387Z,95928.97
2023-04-26T18:00:51.702Z,95936.81
2023-04-26T18:03:21.694Z,95932.38
2023-04-26T18:05:50.715Z,95934.66
2023-04-26T18:08:18.831Z,95936.81
2023-04-26T18:10:48.441Z,95944.59
2023-04-26T18:13:16.943Z,95945.34
2023-04-26T18:15:45.118Z,95939.69
2023-04-26T18:18:13.361Z,95942.75
2023-04-26T18:20:42.916Z,95943.38
2023-04-26T18:23:11.070Z,95952.53
2023-04-26T18:25:39.148Z,95953.72
2023-04-26T18:28:08.694Z,95958.59
2023-04-26T18:30:36.846Z,95957.94
2023-04-26T18:33:06.187Z,95957.25
2023-04-26T18:35:34.556Z,95970.66
2023-04-26T18:38:04.737Z,95969.72
2023-04-26T18:40:33.598Z,95970.22
2023-04-26T18:43:02.057Z,95976.81
2023-04-26T18:45:31.166Z,95979.44
2023-04-26T18:47:59.438Z,95981.19
2023-04-26T18:50:27.557Z,95979.81
2023-04-26T18:52:55.712Z,95982.34
2023-04-26T18:55:25.922Z,95987.66
2023-04-26T18:57:54.582Z,95989.72
2023-04-26T19:00:22.932Z,95987.56
2023-04-26T19:02:51.523Z,95987.44
2023-04-26T19:05:20.236Z,95983.31
2023-04-26T19:07:50.026Z,95996.13
2023-04-26T19:10:20.722Z,95989.09
2023-04-26T19:12:50.687Z,95997.38
2023-04-26T19:15:18.784Z,96001.19
2023-04-26T19:17:50.471Z,95996.00
2023-04-26T19:20:20.111Z,96002.09
2023-04-26T19:22:48.207Z,96000.22
2023-04-26T19:25:20.390Z,96003.22
2023-04-26T19:27:50.362Z,96010.25
2023-04-26T19:30:18.475Z,96018.41
2023-04-26T19:32:46.779Z,96012.09
2023-04-26T19:35:15.134Z,96012.31
2023-04-26T19:37:43.219Z,96014.72
2023-04-26T19:40:12.134Z,96012.31
2023-04-26T19:42:40.150Z,96003.78
2023-04-26T19:45:11.085Z,96016.22
2023-04-26T19:47:41.762Z,96012.75
2023-04-26T19:50:10.758Z,96017.47
2023-04-26T19:52:39.500Z,96015.84
2023-04-26T19:55:10.479Z,96012.63
2023-04-26T19:57:38.690Z,96012.50
2023-04-26T20:00:11.682Z,96011.56
2023-04-26T20:02:39.861Z,96008.78
2023-04-26T20:05:09.367Z,96008.06
2023-04-26T20:07:37.849Z,96005.50
2023-04-26T20:10:07.110Z,96006.41
2023-04-26T20:12:35.205Z,96019.28
2023-04-26T20:15:03.469Z,96011.66
2023-04-26T20:17:33.045Z,96001.59
2023-04-26T20:20:02.172Z,96015.13
2023-04-26T20:22:30.285Z,96002.66
2023-04-26T20:24:58.383Z,96008.00
2023-04-26T20:27:28.062Z,96000.38
2023-04-26T20:29:56.408Z,96006.41
2023-04-26T20:32:24.687Z,96007.50
2023-04-26T20:34:55.488Z,96003.31
2023-04-26T20:37:23.550Z,96005.66
2023-04-26T20:39:51.641Z,96012.84
2023-04-26T20:42:19.795Z,96014.72
2023-04-26T20:44:47.848Z,96017.22
2023-04-26T20:47:16.331Z,96014.06
2023-04-26T20:49:44.428Z,96017.53
2023-04-26T20:52:14.030Z,96024.72
2023-04-26T20:54:42.103Z,96023.31
2023-04-26T20:57:10.236Z,96019.28
2023-04-26T20:59:38.324Z,96024.56
2023-04-26T21:02:07.800Z,96017.22
2023-04-26T21:04:38.676Z,96019.22
2023-04-26T21:07:07.115Z,96031.81
2023-04-26T21:09:36.609Z,96034.22
2023-04-26T21:12:04.842Z,96032.97
2023-04-26T21:14:32.917Z,96029.53
2023-04-26T21:17:01.796Z,96033.78
2023-04-26T21:19:29.840Z,96035.19
2023-04-26T21:21:57.907Z,96029.69
2023-04-26T21:24:25.960Z,96028.88
2023-04-26T21:26:55.447Z,96028.88
2023-04-26T21:29:23.988Z,96029.91
2023-04-26T21:31:52.141Z,96031.53
2023-04-26T21:34:20.373Z,96033.78
2023-04-26T21:36:48.464Z,96032.16
2023-04-26T21:39:16.546Z,96032.38
2023-04-26T21:41:44.632Z,96025.72
2023-04-26T21:44:14.351Z,96030.75
2023-04-26T21:46:42.471Z,96034.22
2023-04-26T21:49:11.510Z,96030.75
2023-04-26T21:51:39.866Z,96032.81
2023-04-26T21:54:08.091Z,96031.69
2023-04-26T21:56:36.605Z,96032.53
2023-04-26T21:59:04.895Z,96029.53
2023-04-26T22:01:34.459Z,96030.16
2023-04-26T22:04:02.799Z,96034.84
2023-04-26T22:06:31.003Z,96032.19
2023-04-26T22:08:59.107Z,96037.47
2023-04-26T22:11:27.629Z,96031.84
2023-04-26T22:13:55.722Z,96032.84
2023-04-26T22:16:23.836Z,96036.50
2023-04-26T22:18:53.587Z,96036.50
2023-04-26T22:21:22.291Z,96037.94
2023-04-26T22:23:50.433Z,96040.56
2023-04-26T22:26:18.934Z,96039.16
2023-04-26T22:28:47.028Z,96038.56
2023-04-26T22:31:15.312Z,96044.28
2023-04-26T22:33:43.569Z,96038.59
2023-04-26T22:36:13.005Z,96039.22
2023-04-26T22:38:41.444Z,96041.31
2023-04-26T22:41:09.523Z,96040.50
2023-04-26T22:43:37.807Z,96048.41
2023-04-26T22:46:06.061Z,96051.06
2023-04-26T22:48:34.118Z,96044.97
2023-04-26T22:51:02.207Z,96049.63
2023-04-26T22:53:33.043Z,96050.44
2023-04-26T22:56:01.177Z,96050.44
2023-04-26T22:58:29.240Z,96049.63
2023-04-26T23:00:57.362Z,96049.25
2023-04-26T23:03:25.639Z,96053.13
2023-04-26T23:05:54.128Z,96056.78
2023-04-26T23:08:22.230Z,96051.72
2023-04-26T23:10:51.690Z,96050.09
2023-04-26T23:13:19.765Z,96046.66
2023-04-26T23:15:47.808Z,96051.72
2023-04-26T23:18:16.338Z,96047.25
2023-04-26T23:20:44.892Z,96051.31
2023-04-26T23:23:13.070Z,96058.41
2023-04-26T23:25:42.245Z,96051.72
2023-04-26T23:28:12.024Z,96058.63
2023-04-26T23:30:40.112Z,96056.41
2023-04-26T23:33:08.693Z,96055.38
2023-04-26T23:35:41.625Z,96058.41
2023-04-26T23:38:09.750Z,96057.97
2023-04-26T23:40:38.100Z,96057.56
2023-04-26T23:43:06.391Z,96051.47
2023-04-26T23:45:35.877Z,96055.13
2023-04-26T23:48:04.605Z,96048.44
2023-04-26T23:50:32.652Z,96049.44
2023-04-26T23:53:00.793Z,96050.50
2023-04-26T23:55:29.188Z,96046.03
2023-04-26T23:57:57.305Z,96040.75
